sensor_id;sensor_type;location;lat;lon;timestamp;P1;durP1;ratioP1;P2;durP2;ratioP2
21731;SDS011;11028;51.156;17.130;2023-05-10T00:04:44;6.75;;;4.32;;
21731;SDS011;11028;51.156;17.130;2023-05-10T00:12:03;9.32;;;4.35;;
21731;SDS011;11028;51.156;17.130;2023-05-10T00:19:21;11.93;;;4.88;;
21731;SDS011;11028;51.156;17.130;2023-05-10T00:26:41;8.35;;;4.35;;
21731;SDS011;11028;51.156;17.130;2023-05-10T00:34:00;8.63;;;5.15;;
21731;SDS011;11028;51.156;17.130;2023-05-10T00:41:18;10.68;;;4.40;;
21731;SDS011;11028;51.156;17.130;2023-05-10T00:48:39;7.80;;;4.70;;
21731;SDS011;11028;51.156;17.130;2023-05-10T00:55:58;8.07;;;4.65;;
21731;SDS011;11028;51.156;17.130;2023-05-10T01:03:16;9.02;;;4.88;;
21731;SDS011;11028;51.156;17.130;2023-05-10T01:10:38;13.95;;;4.30;;
21731;SDS011;11028;51.156;17.130;2023-05-10T01:17:57;8.25;;;5.00;;
21731;SDS011;11028;51.156;17.130;2023-05-10T01:25:19;14.23;;;5.15;;
21731;SDS011;11028;51.156;17.130;2023-05-10T01:32:52;10.70;;;4.88;;
21731;SDS011;11028;51.156;17.130;2023-05-10T01:40:16;9.07;;;4.93;;
21731;SDS011;11028;51.156;17.130;2023-05-10T01:47:38;10.18;;;5.50;;
21731;SDS011;11028;51.156;17.130;2023-05-10T01:55:00;10.63;;;4.88;;
21731;SDS011;11028;51.156;17.130;2023-05-10T02:02:20;8.75;;;5.03;;
21731;SDS011;11028;51.156;17.130;2023-05-10T02:09:39;8.55;;;5.43;;
21731;SDS011;11028;51.156;17.130;2023-05-10T02:16:59;10.63;;;5.03;;
21731;SDS011;11028;51.156;17.130;2023-05-10T02:24:19;9.35;;;4.70;;
21731;SDS011;11028;51.156;17.130;2023-05-10T02:31:38;10.48;;;5.03;;
21731;SDS011;11028;51.156;17.130;2023-05-10T02:39:02;9.02;;;4.95;;
21731;SDS011;11028;51.156;17.130;2023-05-10T02:46:21;12.75;;;5.47;;
21731;SDS011;11028;51.156;17.130;2023-05-10T02:53:40;9.13;;;5.03;;
21731;SDS011;11028;51.156;17.130;2023-05-10T03:01:01;8.05;;;4.65;;
21731;SDS011;11028;51.156;17.130;2023-05-10T03:08:20;12.52;;;5.10;;
21731;SDS011;11028;51.156;17.130;2023-05-10T03:15:42;11.43;;;5.05;;
21731;SDS011;11028;51.156;17.130;2023-05-10T03:23:11;10.40;;;5.05;;
21731;SDS011;11028;51.156;17.130;2023-05-10T03:30:30;10.73;;;5.50;;
21731;SDS011;11028;51.156;17.130;2023-05-10T03:37:49;10.43;;;5.32;;
21731;SDS011;11028;51.156;17.130;2023-05-10T03:45:09;12.77;;;5.25;;
21731;SDS011;11028;51.156;17.130;2023-05-10T03:52:27;13.23;;;5.82;;
21731;SDS011;11028;51.156;17.130;2023-05-10T03:59:46;7.10;;;4.57;;
21731;SDS011;11028;51.156;17.130;2023-05-10T04:07:05;9.27;;;4.90;;
21731;SDS011;11028;51.156;17.130;2023-05-10T04:14:24;8.88;;;5.18;;
21731;SDS011;11028;51.156;17.130;2023-05-10T04:21:42;11.00;;;4.88;;
21731;SDS011;11028;51.156;17.130;2023-05-10T04:29:02;7.45;;;4.75;;
21731;SDS011;11028;51.156;17.130;2023-05-10T04:36:20;13.27;;;5.32;;
21731;SDS011;11028;51.156;17.130;2023-05-10T04:43:38;9.40;;;5.20;;
21731;SDS011;11028;51.156;17.130;2023-05-10T04:50:58;11.00;;;5.15;;
21731;SDS011;11028;51.156;17.130;2023-05-10T04:58:16;7.93;;;5.15;;
21731;SDS011;11028;51.156;17.130;2023-05-10T05:05:35;9.13;;;4.70;;
21731;SDS011;11028;51.156;17.130;2023-05-10T05:12:54;8.07;;;4.57;;
21731;SDS011;11028;51.156;17.130;2023-05-10T05:20:13;8.90;;;5.15;;
21731;SDS011;11028;51.156;17.130;2023-05-10T05:27:32;14.02;;;5.32;;
21731;SDS011;11028;51.156;17.130;2023-05-10T05:34:51;7.82;;;4.35;;
21731;SDS011;11028;51.156;17.130;2023-05-10T05:42:10;6.88;;;4.30;;
21731;SDS011;11028;51.156;17.130;2023-05-10T05:49:28;10.95;;;4.55;;
21731;SDS011;11028;51.156;17.130;2023-05-10T05:56:48;6.43;;;4.00;;
21731;SDS011;11028;51.156;17.130;2023-05-10T06:04:06;10.80;;;4.13;;
21731;SDS011;11028;51.156;17.130;2023-05-10T06:11:25;7.60;;;3.92;;
21731;SDS011;11028;51.156;17.130;2023-05-10T06:18:45;7.50;;;4.07;;
21731;SDS011;11028;51.156;17.130;2023-05-10T06:26:04;9.10;;;4.40;;
21731;SDS011;11028;51.156;17.130;2023-05-10T06:33:22;7.35;;;3.78;;
21731;SDS011;11028;51.156;17.130;2023-05-10T06:40:42;12.18;;;4.55;;
21731;SDS011;11028;51.156;17.130;2023-05-10T06:48:01;6.50;;;4.05;;
21731;SDS011;11028;51.156;17.130;2023-05-10T06:55:19;4.97;;;3.33;;
21731;SDS011;11028;51.156;17.130;2023-05-10T07:02:39;7.18;;;3.78;;
21731;SDS011;11028;51.156;17.130;2023-05-10T07:09:57;4.18;;;3.45;;
21731;SDS011;11028;51.156;17.130;2023-05-10T07:17:15;7.97;;;3.92;;
21731;SDS011;11028;51.156;17.130;2023-05-10T07:24:35;5.97;;;3.22;;
21731;SDS011;11028;51.156;17.130;2023-05-10T07:31:53;7.65;;;2.90;;
21731;SDS011;11028;51.156;17.130;2023-05-10T07:39:14;6.05;;;3.33;;
21731;SDS011;11028;51.156;17.130;2023-05-10T07:46:44;7.30;;;3.10;;
21731;SDS011;11028;51.156;17.130;2023-05-10T07:54:02;5.28;;;3.08;;
21731;SDS011;11028;51.156;17.130;2023-05-10T08:01:20;5.72;;;3.65;;
21731;SDS011;11028;51.156;17.130;2023-05-10T08:08:40;9.90;;;3.35;;
21731;SDS011;11028;51.156;17.130;2023-05-10T08:15:58;6.78;;;3.40;;
21731;SDS011;11028;51.156;17.130;2023-05-10T08:23:17;5.63;;;3.17;;
21731;SDS011;11028;51.156;17.130;2023-05-10T08:30:36;8.05;;;3.58;;
21731;SDS011;11028;51.156;17.130;2023-05-10T08:37:54;3.92;;;3.08;;
21731;SDS011;11028;51.156;17.130;2023-05-10T08:45:12;8.60;;;3.15;;
21731;SDS011;11028;51.156;17.130;2023-05-10T08:52:33;5.45;;;2.92;;
21731;SDS011;11028;51.156;17.130;2023-05-10T08:59:56;6.57;;;2.65;;
21731;SDS011;11028;51.156;17.130;2023-05-10T09:07:14;3.72;;;2.38;;
21731;SDS011;11028;51.156;17.130;2023-05-10T09:14:34;7.00;;;3.00;;
21731;SDS011;11028;51.156;17.130;2023-05-10T09:21:53;5.45;;;2.70;;
21731;SDS011;11028;51.156;17.130;2023-05-10T09:29:12;6.80;;;2.38;;
21731;SDS011;11028;51.156;17.130;2023-05-10T09:36:34;3.20;;;2.47;;
21731;SDS011;11028;51.156;17.130;2023-05-10T09:43:55;8.70;;;3.47;;
21731;SDS011;11028;51.156;17.130;2023-05-10T09:51:20;5.50;;;2.70;;
21731;SDS011;11028;51.156;17.130;2023-05-10T09:58:39;6.28;;;3.25;;
21731;SDS011;11028;51.156;17.130;2023-05-10T10:05:57;4.05;;;2.80;;
21731;SDS011;11028;51.156;17.130;2023-05-10T10:13:15;3.80;;;2.88;;
21731;SDS011;11028;51.156;17.130;2023-05-10T10:20:35;6.90;;;2.60;;
21731;SDS011;11028;51.156;17.130;2023-05-10T10:27:58;2.92;;;2.42;;
21731;SDS011;11028;51.156;17.130;2023-05-10T10:35:23;3.63;;;3.00;;
21731;SDS011;11028;51.156;17.130;2023-05-10T10:42:46;2.70;;;2.50;;
21731;SDS011;11028;51.156;17.130;2023-05-10T10:50:06;11.90;;;2.70;;
21731;SDS011;11028;51.156;17.130;2023-05-10T10:57:26;2.70;;;2.45;;
21731;SDS011;11028;51.156;17.130;2023-05-10T11:04:47;4.18;;;2.75;;
21731;SDS011;11028;51.156;17.130;2023-05-10T11:12:07;5.03;;;3.10;;
21731;SDS011;11028;51.156;17.130;2023-05-10T11:19:27;4.55;;;2.80;;
21731;SDS011;11028;51.156;17.130;2023-05-10T11:26:49;6.40;;;2.58;;
21731;SDS011;11028;51.156;17.130;2023-05-10T11:34:07;4.27;;;2.73;;
21731;SDS011;11028;51.156;17.130;2023-05-10T11:41:27;4.82;;;2.38;;
21731;SDS011;11028;51.156;17.130;2023-05-10T11:48:48;3.30;;;2.45;;
21731;SDS011;11028;51.156;17.130;2023-05-10T11:56:08;3.30;;;2.53;;
21731;SDS011;11028;51.156;17.130;2023-05-10T12:03:27;3.75;;;2.38;;
21731;SDS011;11028;51.156;17.130;2023-05-10T12:10:47;7.45;;;2.28;;
21731;SDS011;11028;51.156;17.130;2023-05-10T12:18:05;3.50;;;2.20;;
21731;SDS011;11028;51.156;17.130;2023-05-10T12:25:24;4.60;;;2.58;;
21731;SDS011;11028;51.156;17.130;2023-05-10T12:32:49;4.22;;;2.05;;
21731;SDS011;11028;51.156;17.130;2023-05-10T12:40:08;4.82;;;2.30;;
21731;SDS011;11028;51.156;17.130;2023-05-10T12:47:27;5.10;;;2.10;;
21731;SDS011;11028;51.156;17.130;2023-05-10T12:54:47;4.85;;;1.92;;
21731;SDS011;11028;51.156;17.130;2023-05-10T13:02:06;5.13;;;2.08;;
21731;SDS011;11028;51.156;17.130;2023-05-10T13:09:24;6.53;;;2.28;;
21731;SDS011;11028;51.156;17.130;2023-05-10T13:16:48;7.40;;;1.58;;
21731;SDS011;11028;51.156;17.130;2023-05-10T13:24:08;2.97;;;1.80;;
21731;SDS011;11028;51.156;17.130;2023-05-10T13:31:27;7.45;;;1.65;;
21731;SDS011;11028;51.156;17.130;2023-05-10T13:38:48;2.50;;;1.80;;
21731;SDS011;11028;51.156;17.130;2023-05-10T13:46:07;4.43;;;1.90;;
21731;SDS011;11028;51.156;17.130;2023-05-10T13:53:25;2.10;;;1.80;;
21731;SDS011;11028;51.156;17.130;2023-05-10T14:00:46;2.35;;;2.00;;
21731;SDS011;11028;51.156;17.130;2023-05-10T14:08:04;1.92;;;1.52;;
21731;SDS011;11028;51.156;17.130;2023-05-10T14:15:26;6.30;;;1.88;;
21731;SDS011;11028;51.156;17.130;2023-05-10T14:22:46;3.55;;;1.60;;
21731;SDS011;11028;51.156;17.130;2023-05-10T14:30:05;2.70;;;1.90;;
21731;SDS011;11028;51.156;17.130;2023-05-10T14:37:26;5.95;;;1.83;;
21731;SDS011;11028;51.156;17.130;2023-05-10T14:44:46;2.45;;;1.60;;
21731;SDS011;11028;51.156;17.130;2023-05-10T14:52:04;1.73;;;1.40;;
21731;SDS011;11028;51.156;17.130;2023-05-10T14:59:22;2.17;;;1.60;;
21731;SDS011;11028;51.156;17.130;2023-05-10T15:06:43;2.33;;;1.65;;
21731;SDS011;11028;51.156;17.130;2023-05-10T15:14:02;3.33;;;1.63;;
21731;SDS011;11028;51.156;17.130;2023-05-10T15:21:20;2.22;;;1.80;;
21731;SDS011;11028;51.156;17.130;2023-05-10T15:28:40;1.63;;;1.52;;
21731;SDS011;11028;51.156;17.130;2023-05-10T15:35:59;2.00;;;1.70;;
21731;SDS011;11028;51.156;17.130;2023-05-10T15:43:17;2.20;;;2.00;;
21731;SDS011;11028;51.156;17.130;2023-05-10T15:50:37;1.92;;;1.67;;
21731;SDS011;11028;51.156;17.130;2023-05-10T15:57:57;6.82;;;2.22;;
21731;SDS011;11028;51.156;17.130;2023-05-10T16:05:17;2.35;;;1.83;;
21731;SDS011;11028;51.156;17.130;2023-05-10T16:12:38;3.90;;;1.65;;
21731;SDS011;11028;51.156;17.130;2023-05-10T16:19:56;3.00;;;1.92;;
21731;SDS011;11028;51.156;17.130;2023-05-10T16:27:15;4.28;;;2.25;;
21731;SDS011;11028;51.156;17.130;2023-05-10T16:34:35;6.40;;;2.03;;
21731;SDS011;11028;51.156;17.130;2023-05-10T16:41:54;5.80;;;2.25;;
21731;SDS011;11028;51.156;17.130;2023-05-10T16:49:14;4.22;;;2.85;;
21731;SDS011;11028;51.156;17.130;2023-05-10T16:56:34;6.93;;;2.80;;
21731;SDS011;11028;51.156;17.130;2023-05-10T17:03:55;3.30;;;2.20;;
21731;SDS011;11028;51.156;17.130;2023-05-10T17:11:15;2.45;;;2.25;;
21731;SDS011;11028;51.156;17.130;2023-05-10T17:18:37;4.97;;;2.50;;
21731;SDS011;11028;51.156;17.130;2023-05-10T17:25:55;6.78;;;3.00;;
21731;SDS011;11028;51.156;17.130;2023-05-10T17:33:17;3.92;;;2.63;;
21731;SDS011;11028;51.156;17.130;2023-05-10T17:40:37;3.53;;;2.47;;
21731;SDS011;11028;51.156;17.130;2023-05-10T17:47:57;7.47;;;3.33;;
21731;SDS011;11028;51.156;17.130;2023-05-10T17:55:16;11.40;;;5.18;;
21731;SDS011;11028;51.156;17.130;2023-05-10T18:02:36;6.90;;;3.92;;
21731;SDS011;11028;51.156;17.130;2023-05-10T18:09:55;9.13;;;4.07;;
21731;SDS011;11028;51.156;17.130;2023-05-10T18:17:15;8.30;;;3.97;;
21731;SDS011;11028;51.156;17.130;2023-05-10T18:24:35;6.70;;;4.45;;
21731;SDS011;11028;51.156;17.130;2023-05-10T18:31:56;5.75;;;3.85;;
21731;SDS011;11028;51.156;17.130;2023-05-10T18:39:16;6.45;;;3.78;;
21731;SDS011;11028;51.156;17.130;2023-05-10T18:46:36;8.93;;;4.93;;
21731;SDS011;11028;51.156;17.130;2023-05-10T18:53:55;10.75;;;3.85;;
21731;SDS011;11028;51.156;17.130;2023-05-10T19:01:14;12.07;;;4.60;;
21731;SDS011;11028;51.156;17.130;2023-05-10T19:08:39;9.25;;;4.82;;
21731;SDS011;11028;51.156;17.130;2023-05-10T19:16:03;9.70;;;4.53;;
21731;SDS011;11028;51.156;17.130;2023-05-10T19:23:24;10.77;;;6.20;;
21731;SDS011;11028;51.156;17.130;2023-05-10T19:30:46;8.20;;;5.97;;
21731;SDS011;11028;51.156;17.130;2023-05-10T19:38:11;9.63;;;5.20;;
21731;SDS011;11028;51.156;17.130;2023-05-10T19:45:30;10.27;;;5.80;;
21731;SDS011;11028;51.156;17.130;2023-05-10T19:52:55;13.73;;;5.90;;
21731;SDS011;11028;51.156;17.130;2023-05-10T20:00:16;7.40;;;5.15;;
21731;SDS011;11028;51.156;17.130;2023-05-10T20:07:35;7.97;;;5.10;;
21731;SDS011;11028;51.156;17.130;2023-05-10T20:14:55;12.20;;;5.65;;
21731;SDS011;11028;51.156;17.130;2023-05-10T20:22:13;10.98;;;6.43;;
21731;SDS011;11028;51.156;17.130;2023-05-10T20:29:32;12.10;;;5.90;;
21731;SDS011;11028;51.156;17.130;2023-05-10T20:36:52;12.40;;;6.18;;
21731;SDS011;11028;51.156;17.130;2023-05-10T20:44:10;13.82;;;5.97;;
21731;SDS011;11028;51.156;17.130;2023-05-10T20:51:28;10.23;;;5.47;;
21731;SDS011;11028;51.156;17.130;2023-05-10T20:58:50;8.45;;;5.28;;
21731;SDS011;11028;51.156;17.130;2023-05-10T21:06:09;7.07;;;4.50;;
21731;SDS011;11028;51.156;17.130;2023-05-10T21:13:27;9.57;;;4.30;;
21731;SDS011;11028;51.156;17.130;2023-05-10T21:20:47;7.95;;;4.32;;
21731;SDS011;11028;51.156;17.130;2023-05-10T21:28:06;8.80;;;4.80;;
21731;SDS011;11028;51.156;17.130;2023-05-10T21:35:24;6.43;;;4.80;;
21731;SDS011;11028;51.156;17.130;2023-05-10T21:42:44;8.77;;;5.15;;
21731;SDS011;11028;51.156;17.130;2023-05-10T21:50:06;10.02;;;4.47;;
21731;SDS011;11028;51.156;17.130;2023-05-10T21:57:26;6.38;;;4.00;;
21731;SDS011;11028;51.156;17.130;2023-05-10T22:04:47;8.25;;;3.90;;
21731;SDS011;11028;51.156;17.130;2023-05-10T22:12:09;10.95;;;4.38;;
21731;SDS011;11028;51.156;17.130;2023-05-10T22:19:27;7.05;;;4.18;;
21731;SDS011;11028;51.156;17.130;2023-05-10T22:26:47;5.70;;;3.72;;
21731;SDS011;11028;51.156;17.130;2023-05-10T22:34:06;6.75;;;3.80;;
21731;SDS011;11028;51.156;17.130;2023-05-10T22:41:24;5.95;;;4.05;;
21731;SDS011;11028;51.156;17.130;2023-05-10T22:48:44;5.78;;;3.72;;
21731;SDS011;11028;51.156;17.130;2023-05-10T22:56:02;5.72;;;3.63;;
21731;SDS011;11028;51.156;17.130;2023-05-10T23:03:20;5.25;;;3.60;;
21731;SDS011;11028;51.156;17.130;2023-05-10T23:10:40;6.93;;;3.90;;
21731;SDS011;11028;51.156;17.130;2023-05-10T23:17:59;6.28;;;3.63;;
21731;SDS011;11028;51.156;17.130;2023-05-10T23:25:17;4.70;;;3.83;;
21731;SDS011;11028;51.156;17.130;2023-05-10T23:32:37;7.18;;;5.00;;
21731;SDS011;11028;51.156;17.130;2023-05-10T23:39:55;6.97;;;4.63;;
21731;SDS011;11028;51.156;17.130;2023-05-10T23:47:13;12.13;;;4.53;;
21731;SDS011;11028;51.156;17.130;2023-05-10T23:54:33;5.97;;;3.95;;
